sensor_id;sensor_type;location;lat;lon;timestamp;P1;durP1;ratioP1;P2;durP2;ratioP2
77991;SDS011;67180;43.534;-5.652;2023-02-28T00:00:25;8.82;;;2.88;;
77991;SDS011;67180;43.534;-5.652;2023-02-28T00:02:52;9.40;;;2.85;;
77991;SDS011;67180;43.534;-5.652;2023-02-28T00:05:19;7.00;;;2.60;;
77991;SDS011;67180;43.534;-5.652;2023-02-28T00:07:46;7.78;;;2.60;;
77991;SDS011;67180;43.534;-5.652;2023-02-28T00:10:13;7.10;;;3.08;;
77991;SDS011;67180;43.534;-5.652;2023-02-28T00:12:40;11.00;;;3.20;;
77991;SDS011;67180;43.534;-5.652;2023-02-28T00:15:07;9.15;;;2.42;;
77991;SDS011;67180;43.534;-5.652;2023-02-28T00:17:34;11.73;;;3.22;;
77991;SDS011;67180;43.534;-5.652;2023-02-28T00:20:00;8.60;;;2.65;;
77991;SDS011;67180;43.534;-5.652;2023-02-28T00:22:26;6.60;;;2.47;;
77991;SDS011;67180;43.534;-5.652;2023-02-28T00:24:52;12.32;;;2.63;;
77991;SDS011;67180;43.534;-5.652;2023-02-28T00:27:19;7.05;;;2.55;;
77991;SDS011;67180;43.534;-5.652;2023-02-28T00:29:46;8.35;;;2.50;;
77991;SDS011;67180;43.534;-5.652;2023-02-28T00:32:12;7.47;;;2.35;;
77991;SDS011;67180;43.534;-5.652;2023-02-28T00:34:38;9.60;;;2.35;;
77991;SDS011;67180;43.534;-5.652;2023-02-28T00:37:05;7.50;;;2.58;;
77991;SDS011;67180;43.534;-5.652;2023-02-28T00:39:34;8.02;;;2.92;;
77991;SDS011;67180;43.534;-5.652;2023-02-28T00:42:01;6.25;;;2.78;;
77991;SDS011;67180;43.534;-5.652;2023-02-28T00:44:27;5.90;;;2.42;;
77991;SDS011;67180;43.534;-5.652;2023-02-28T00:46:54;6.47;;;1.95;;
77991;SDS011;67180;43.534;-5.652;2023-02-28T00:49:21;8.95;;;2.50;;
77991;SDS011;67180;43.534;-5.652;2023-02-28T00:51:47;9.13;;;2.35;;
77991;SDS011;67180;43.534;-5.652;2023-02-28T00:54:14;8.80;;;2.30;;
77991;SDS011;67180;43.534;-5.652;2023-02-28T00:56:40;9.73;;;2.83;;
77991;SDS011;67180;43.534;-5.652;2023-02-28T00:59:06;8.27;;;2.58;;
77991;SDS011;67180;43.534;-5.652;2023-02-28T01:01:32;5.68;;;2.47;;
77991;SDS011;67180;43.534;-5.652;2023-02-28T01:03:59;10.75;;;2.42;;
77991;SDS011;67180;43.534;-5.652;2023-02-28T01:06:25;10.43;;;2.50;;
77991;SDS011;67180;43.534;-5.652;2023-02-28T01:08:51;6.93;;;2.42;;
77991;SDS011;67180;43.534;-5.652;2023-02-28T01:11:17;10.20;;;2.42;;
77991;SDS011;67180;43.534;-5.652;2023-02-28T01:13:44;7.60;;;2.60;;
77991;SDS011;67180;43.534;-5.652;2023-02-28T01:16:11;7.53;;;2.60;;
77991;SDS011;67180;43.534;-5.652;2023-02-28T01:18:38;7.32;;;2.50;;
77991;SDS011;67180;43.534;-5.652;2023-02-28T01:21:05;6.93;;;2.45;;
77991;SDS011;67180;43.534;-5.652;2023-02-28T01:23:31;11.05;;;2.78;;
77991;SDS011;67180;43.534;-5.652;2023-02-28T01:26:03;8.52;;;2.60;;
77991;SDS011;67180;43.534;-5.652;2023-02-28T01:28:30;8.88;;;3.08;;
77991;SDS011;67180;43.534;-5.652;2023-02-28T01:30:56;9.40;;;2.60;;
77991;SDS011;67180;43.534;-5.652;2023-02-28T01:33:22;10.63;;;2.60;;
77991;SDS011;67180;43.534;-5.652;2023-02-28T01:35:48;10.80;;;2.53;;
77991;SDS011;67180;43.534;-5.652;2023-02-28T01:38:14;8.50;;;2.58;;
77991;SDS011;67180;43.534;-5.652;2023-02-28T01:40:40;14.60;;;2.75;;
77991;SDS011;67180;43.534;-5.652;2023-02-28T01:43:12;7.93;;;2.40;;
77991;SDS011;67180;43.534;-5.652;2023-02-28T01:45:44;7.43;;;2.25;;
77991;SDS011;67180;43.534;-5.652;2023-02-28T01:48:11;9.98;;;2.50;;
77991;SDS011;67180;43.534;-5.652;2023-02-28T01:50:39;10.93;;;2.85;;
77991;SDS011;67180;43.534;-5.652;2023-02-28T01:53:08;10.85;;;3.13;;
77991;SDS011;67180;43.534;-5.652;2023-02-28T01:55:37;6.85;;;2.90;;
77991;SDS011;67180;43.534;-5.652;2023-02-28T01:58:04;8.43;;;2.47;;
77991;SDS011;67180;43.534;-5.652;2023-02-28T02:00:31;6.57;;;2.40;;
77991;SDS011;67180;43.534;-5.652;2023-02-28T02:02:58;7.60;;;2.00;;
77991;SDS011;67180;43.534;-5.652;2023-02-28T02:05:26;12.02;;;2.28;;
77991;SDS011;67180;43.534;-5.652;2023-02-28T02:07:55;9.45;;;2.13;;
77991;SDS011;67180;43.534;-5.652;2023-02-28T02:10:32;8.27;;;2.22;;
77991;SDS011;67180;43.534;-5.652;2023-02-28T02:13:05;6.82;;;2.40;;
77991;SDS011;67180;43.534;-5.652;2023-02-28T02:15:39;9.57;;;2.58;;
77991;SDS011;67180;43.534;-5.652;2023-02-28T02:18:17;7.63;;;2.40;;
77991;SDS011;67180;43.534;-5.652;2023-02-28T02:20:51;5.30;;;2.25;;
77991;SDS011;67180;43.534;-5.652;2023-02-28T02:23:27;9.30;;;2.40;;
77991;SDS011;67180;43.534;-5.652;2023-02-28T02:26:05;9.10;;;2.42;;
77991;SDS011;67180;43.534;-5.652;2023-02-28T02:28:46;6.93;;;2.22;;
77991;SDS011;67180;43.534;-5.652;2023-02-28T02:31:26;8.77;;;2.95;;
77991;SDS011;67180;43.534;-5.652;2023-02-28T02:36:34;12.50;;;4.13;;
77991;SDS011;67180;43.534;-5.652;2023-02-28T02:39:03;10.50;;;4.30;;
77991;SDS011;67180;43.534;-5.652;2023-02-28T02:47:00;17.02;;;5.47;;
77991;SDS011;67180;43.534;-5.652;2023-02-28T02:49:31;17.38;;;6.38;;
77991;SDS011;67180;43.534;-5.652;2023-02-28T02:52:00;15.65;;;6.18;;
77991;SDS011;67180;43.534;-5.652;2023-02-28T02:54:30;20.23;;;7.68;;
77991;SDS011;67180;43.534;-5.652;2023-02-28T02:56:58;19.45;;;6.70;;
77991;SDS011;67180;43.534;-5.652;2023-02-28T02:59:25;17.83;;;7.38;;
77991;SDS011;67180;43.534;-5.652;2023-02-28T03:01:54;15.98;;;7.07;;
77991;SDS011;67180;43.534;-5.652;2023-02-28T03:04:22;20.17;;;6.97;;
77991;SDS011;67180;43.534;-5.652;2023-02-28T03:06:50;16.95;;;6.90;;
77991;SDS011;67180;43.534;-5.652;2023-02-28T03:09:20;17.48;;;6.60;;
77991;SDS011;67180;43.534;-5.652;2023-02-28T03:11:46;16.58;;;6.55;;
77991;SDS011;67180;43.534;-5.652;2023-02-28T03:16:59;16.95;;;6.95;;
77991;SDS011;67180;43.534;-5.652;2023-02-28T03:19:38;16.25;;;6.13;;
77991;SDS011;67180;43.534;-5.652;2023-02-28T03:22:54;20.00;;;7.25;;
77991;SDS011;67180;43.534;-5.652;2023-02-28T03:24:56;15.48;;;6.50;;
77991;SDS011;67180;43.534;-5.652;2023-02-28T03:27:29;16.85;;;6.28;;
77991;SDS011;67180;43.534;-5.652;2023-02-28T03:30:03;14.75;;;5.75;;
77991;SDS011;67180;43.534;-5.652;2023-02-28T03:32:34;15.35;;;6.25;;
77991;SDS011;67180;43.534;-5.652;2023-02-28T03:35:05;12.50;;;5.30;;
77991;SDS011;67180;43.534;-5.652;2023-02-28T03:37:33;13.90;;;5.68;;
77991;SDS011;67180;43.534;-5.652;2023-02-28T03:40:04;12.85;;;5.07;;
77991;SDS011;67180;43.534;-5.652;2023-02-28T03:42:31;17.35;;;5.70;;
77991;SDS011;67180;43.534;-5.652;2023-02-28T03:45:02;16.17;;;5.35;;
77991;SDS011;67180;43.534;-5.652;2023-02-28T03:47:34;14.57;;;5.35;;
77991;SDS011;67180;43.534;-5.652;2023-02-28T03:50:03;13.02;;;4.88;;
77991;SDS011;67180;43.534;-5.652;2023-02-28T03:52:33;16.25;;;5.30;;
77991;SDS011;67180;43.534;-5.652;2023-02-28T03:55:02;18.17;;;4.97;;
77991;SDS011;67180;43.534;-5.652;2023-02-28T03:57:41;13.18;;;4.53;;
77991;SDS011;67180;43.534;-5.652;2023-02-28T04:00:19;10.07;;;4.40;;
77991;SDS011;67180;43.534;-5.652;2023-02-28T04:02:45;15.13;;;4.85;;
77991;SDS011;67180;43.534;-5.652;2023-02-28T04:07:43;11.13;;;4.50;;
77991;SDS011;67180;43.534;-5.652;2023-02-28T04:10:09;10.98;;;4.22;;
77991;SDS011;67180;43.534;-5.652;2023-02-28T04:12:37;13.15;;;5.20;;
77991;SDS011;67180;43.534;-5.652;2023-02-28T04:15:03;13.13;;;4.15;;
77991;SDS011;67180;43.534;-5.652;2023-02-28T04:17:30;13.30;;;5.18;;
77991;SDS011;67180;43.534;-5.652;2023-02-28T04:19:56;15.43;;;4.35;;
77991;SDS011;67180;43.534;-5.652;2023-02-28T04:22:22;14.70;;;4.80;;
77991;SDS011;67180;43.534;-5.652;2023-02-28T04:24:52;13.90;;;4.32;;
77991;SDS011;67180;43.534;-5.652;2023-02-28T04:27:19;13.20;;;5.03;;
77991;SDS011;67180;43.534;-5.652;2023-02-28T04:29:46;11.63;;;4.32;;
77991;SDS011;67180;43.534;-5.652;2023-02-28T04:32:12;13.02;;;4.03;;
77991;SDS011;67180;43.534;-5.652;2023-02-28T04:34:38;17.48;;;4.03;;
77991;SDS011;67180;43.534;-5.652;2023-02-28T04:37:05;12.05;;;4.10;;
77991;SDS011;67180;43.534;-5.652;2023-02-28T04:39:34;12.02;;;4.13;;
77991;SDS011;67180;43.534;-5.652;2023-02-28T04:42:00;11.60;;;3.85;;
77991;SDS011;67180;43.534;-5.652;2023-02-28T04:44:26;9.10;;;3.90;;
77991;SDS011;67180;43.534;-5.652;2023-02-28T04:46:52;10.45;;;3.97;;
77991;SDS011;67180;43.534;-5.652;2023-02-28T04:49:19;9.32;;;3.50;;
77991;SDS011;67180;43.534;-5.652;2023-02-28T04:51:45;11.95;;;3.45;;
77991;SDS011;67180;43.534;-5.652;2023-02-28T04:54:11;12.25;;;3.40;;
77991;SDS011;67180;43.534;-5.652;2023-02-28T04:56:38;10.80;;;3.10;;
77991;SDS011;67180;43.534;-5.652;2023-02-28T04:59:04;7.30;;;3.40;;
77991;SDS011;67180;43.534;-5.652;2023-02-28T05:01:31;10.77;;;3.15;;
77991;SDS011;67180;43.534;-5.652;2023-02-28T05:03:59;10.80;;;2.72;;
77991;SDS011;67180;43.534;-5.652;2023-02-28T05:06:26;11.65;;;3.80;;
77991;SDS011;67180;43.534;-5.652;2023-02-28T05:08:53;8.65;;;2.92;;
77991;SDS011;67180;43.534;-5.652;2023-02-28T05:11:20;9.82;;;3.05;;
77991;SDS011;67180;43.534;-5.652;2023-02-28T05:13:47;8.77;;;3.00;;
77991;SDS011;67180;43.534;-5.652;2023-02-28T05:16:13;9.32;;;3.38;;
77991;SDS011;67180;43.534;-5.652;2023-02-28T05:18:40;12.13;;;3.17;;
77991;SDS011;67180;43.534;-5.652;2023-02-28T05:21:12;10.13;;;3.17;;
77991;SDS011;67180;43.534;-5.652;2023-02-28T05:23:48;14.38;;;3.90;;
77991;SDS011;67180;43.534;-5.652;2023-02-28T05:26:14;14.63;;;3.50;;
77991;SDS011;67180;43.534;-5.652;2023-02-28T05:28:41;11.93;;;3.70;;
77991;SDS011;67180;43.534;-5.652;2023-02-28T05:31:10;12.45;;;3.40;;
77991;SDS011;67180;43.534;-5.652;2023-02-28T05:33:36;6.53;;;2.70;;
77991;SDS011;67180;43.534;-5.652;2023-02-28T05:36:03;11.23;;;3.20;;
77991;SDS011;67180;43.534;-5.652;2023-02-28T05:38:29;10.10;;;3.35;;
77991;SDS011;67180;43.534;-5.652;2023-02-28T05:43:41;12.80;;;3.38;;
77991;SDS011;67180;43.534;-5.652;2023-02-28T05:46:07;8.50;;;3.10;;
77991;SDS011;67180;43.534;-5.652;2023-02-28T05:48:35;12.15;;;3.35;;
77991;SDS011;67180;43.534;-5.652;2023-02-28T05:51:01;7.68;;;3.15;;
77991;SDS011;67180;43.534;-5.652;2023-02-28T05:53:27;7.90;;;3.10;;
77991;SDS011;67180;43.534;-5.652;2023-02-28T05:55:54;10.80;;;3.28;;
77991;SDS011;67180;43.534;-5.652;2023-02-28T05:58:21;8.27;;;2.97;;
77991;SDS011;67180;43.534;-5.652;2023-02-28T06:00:47;11.85;;;2.90;;
77991;SDS011;67180;43.534;-5.652;2023-02-28T06:03:14;11.23;;;3.30;;
77991;SDS011;67180;43.534;-5.652;2023-02-28T06:05:40;10.63;;;3.28;;
77991;SDS011;67180;43.534;-5.652;2023-02-28T06:08:06;9.85;;;3.28;;
77991;SDS011;67180;43.534;-5.652;2023-02-28T06:10:33;14.68;;;2.90;;
77991;SDS011;67180;43.534;-5.652;2023-02-28T06:13:00;8.90;;;2.75;;
77991;SDS011;67180;43.534;-5.652;2023-02-28T06:15:28;8.55;;;3.00;;
77991;SDS011;67180;43.534;-5.652;2023-02-28T06:17:55;12.10;;;3.05;;
77991;SDS011;67180;43.534;-5.652;2023-02-28T06:20:21;10.15;;;2.92;;
77991;SDS011;67180;43.534;-5.652;2023-02-28T06:22:48;8.00;;;2.80;;
77991;SDS011;67180;43.534;-5.652;2023-02-28T06:25:16;8.60;;;3.38;;
77991;SDS011;67180;43.534;-5.652;2023-02-28T06:27:43;8.73;;;3.03;;
77991;SDS011;67180;43.534;-5.652;2023-02-28T06:30:10;13.45;;;3.05;;
77991;SDS011;67180;43.534;-5.652;2023-02-28T06:32:36;8.93;;;2.92;;
77991;SDS011;67180;43.534;-5.652;2023-02-28T06:35:03;10.52;;;3.08;;
77991;SDS011;67180;43.534;-5.652;2023-02-28T06:37:30;7.38;;;2.88;;
77991;SDS011;67180;43.534;-5.652;2023-02-28T06:39:56;7.72;;;2.83;;
77991;SDS011;67180;43.534;-5.652;2023-02-28T06:42:23;5.38;;;2.92;;
77991;SDS011;67180;43.534;-5.652;2023-02-28T06:44:55;6.53;;;2.58;;
77991;SDS011;67180;43.534;-5.652;2023-02-28T06:47:22;11.98;;;2.83;;
77991;SDS011;67180;43.534;-5.652;2023-02-28T06:49:48;8.43;;;2.47;;
77991;SDS011;67180;43.534;-5.652;2023-02-28T06:52:14;9.35;;;2.72;;
77991;SDS011;67180;43.534;-5.652;2023-02-28T06:54:41;10.35;;;2.88;;
77991;SDS011;67180;43.534;-5.652;2023-02-28T06:57:07;11.48;;;2.60;;
77991;SDS011;67180;43.534;-5.652;2023-02-28T06:59:34;7.85;;;2.80;;
77991;SDS011;67180;43.534;-5.652;2023-02-28T07:02:01;11.55;;;2.70;;
77991;SDS011;67180;43.534;-5.652;2023-02-28T07:04:27;9.98;;;2.60;;
77991;SDS011;67180;43.534;-5.652;2023-02-28T07:06:54;4.47;;;1.98;;
77991;SDS011;67180;43.534;-5.652;2023-02-28T07:09:22;8.90;;;2.22;;
77991;SDS011;67180;43.534;-5.652;2023-02-28T07:11:48;7.45;;;2.80;;
77991;SDS011;67180;43.534;-5.652;2023-02-28T07:14:14;11.40;;;2.75;;
77991;SDS011;67180;43.534;-5.652;2023-02-28T07:16:41;8.38;;;2.80;;
77991;SDS011;67180;43.534;-5.652;2023-02-28T07:19:07;6.47;;;2.50;;
77991;SDS011;67180;43.534;-5.652;2023-02-28T07:21:33;7.63;;;2.50;;
77991;SDS011;67180;43.534;-5.652;2023-02-28T07:23:59;9.18;;;2.95;;
77991;SDS011;67180;43.534;-5.652;2023-02-28T07:26:25;7.65;;;2.60;;
77991;SDS011;67180;43.534;-5.652;2023-02-28T07:28:51;9.30;;;2.55;;
77991;SDS011;67180;43.534;-5.652;2023-02-28T07:31:18;9.63;;;2.40;;
77991;SDS011;67180;43.534;-5.652;2023-02-28T07:33:44;8.23;;;2.60;;
77991;SDS011;67180;43.534;-5.652;2023-02-28T07:36:12;8.75;;;2.50;;
77991;SDS011;67180;43.534;-5.652;2023-02-28T07:38:48;8.57;;;3.30;;
77991;SDS011;67180;43.534;-5.652;2023-02-28T07:41:15;13.95;;;2.50;;
77991;SDS011;67180;43.534;-5.652;2023-02-28T07:43:42;9.20;;;2.58;;
77991;SDS011;67180;43.534;-5.652;2023-02-28T07:46:12;16.92;;;2.90;;
77991;SDS011;67180;43.534;-5.652;2023-02-28T07:48:41;10.38;;;2.60;;
77991;SDS011;67180;43.534;-5.652;2023-02-28T07:51:07;7.18;;;2.72;;
77991;SDS011;67180;43.534;-5.652;2023-02-28T07:53:34;8.30;;;2.42;;
77991;SDS011;67180;43.534;-5.652;2023-02-28T07:56:00;6.53;;;2.10;;
77991;SDS011;67180;43.534;-5.652;2023-02-28T07:58:28;15.13;;;2.70;;
77991;SDS011;67180;43.534;-5.652;2023-02-28T08:00:54;5.07;;;2.30;;
77991;SDS011;67180;43.534;-5.652;2023-02-28T08:03:23;8.65;;;2.50;;
77991;SDS011;67180;43.534;-5.652;2023-02-28T08:05:50;8.55;;;2.55;;
77991;SDS011;67180;43.534;-5.652;2023-02-28T08:08:17;6.82;;;2.72;;
77991;SDS011;67180;43.534;-5.652;2023-02-28T08:10:43;10.55;;;2.65;;
77991;SDS011;67180;43.534;-5.652;2023-02-28T08:13:11;7.45;;;2.70;;
77991;SDS011;67180;43.534;-5.652;2023-02-28T08:15:37;11.75;;;2.72;;
77991;SDS011;67180;43.534;-5.652;2023-02-28T08:18:03;8.77;;;2.70;;
77991;SDS011;67180;43.534;-5.652;2023-02-28T08:20:29;8.48;;;2.50;;
77991;SDS011;67180;43.534;-5.652;2023-02-28T08:22:56;12.13;;;3.15;;
77991;SDS011;67180;43.534;-5.652;2023-02-28T08:25:22;9.13;;;3.00;;
77991;SDS011;67180;43.534;-5.652;2023-02-28T08:27:50;6.75;;;2.65;;
77991;SDS011;67180;43.534;-5.652;2023-02-28T08:30:16;10.88;;;2.90;;
77991;SDS011;67180;43.534;-5.652;2023-02-28T08:32:42;15.30;;;3.40;;
77991;SDS011;67180;43.534;-5.652;2023-02-28T08:35:09;9.30;;;2.80;;
77991;SDS011;67180;43.534;-5.652;2023-02-28T08:37:44;8.88;;;3.20;;
77991;SDS011;67180;43.534;-5.652;2023-02-28T08:40:10;8.80;;;2.50;;
77991;SDS011;67180;43.534;-5.652;2023-02-28T08:42:43;8.82;;;2.80;;
77991;SDS011;67180;43.534;-5.652;2023-02-28T08:45:09;14.95;;;3.20;;
77991;SDS011;67180;43.534;-5.652;2023-02-28T08:47:36;5.45;;;2.28;;
77991;SDS011;67180;43.534;-5.652;2023-02-28T08:50:02;10.73;;;2.92;;
77991;SDS011;67180;43.534;-5.652;2023-02-28T08:52:28;5.55;;;2.35;;
77991;SDS011;67180;43.534;-5.652;2023-02-28T08:54:54;11.50;;;2.70;;
77991;SDS011;67180;43.534;-5.652;2023-02-28T08:57:21;8.07;;;2.67;;
77991;SDS011;67180;43.534;-5.652;2023-02-28T08:59:51;10.23;;;2.65;;
77991;SDS011;67180;43.534;-5.652;2023-02-28T09:02:17;8.18;;;2.60;;
77991;SDS011;67180;43.534;-5.652;2023-02-28T09:04:44;9.35;;;2.78;;
77991;SDS011;67180;43.534;-5.652;2023-02-28T09:07:11;5.22;;;2.53;;
77991;SDS011;67180;43.534;-5.652;2023-02-28T09:09:37;4.63;;;1.90;;
77991;SDS011;67180;43.534;-5.652;2023-02-28T09:12:18;7.70;;;2.40;;
77991;SDS011;67180;43.534;-5.652;2023-02-28T09:14:45;4.95;;;2.22;;
77991;SDS011;67180;43.534;-5.652;2023-02-28T09:17:11;8.50;;;2.50;;
77991;SDS011;67180;43.534;-5.652;2023-02-28T09:19:37;8.27;;;2.72;;
77991;SDS011;67180;43.534;-5.652;2023-02-28T09:22:04;6.55;;;2.22;;
77991;SDS011;67180;43.534;-5.652;2023-02-28T09:24:30;7.90;;;2.63;;
77991;SDS011;67180;43.534;-5.652;2023-02-28T09:26:56;7.53;;;2.53;;
77991;SDS011;67180;43.534;-5.652;2023-02-28T09:29:22;6.15;;;2.10;;
77991;SDS011;67180;43.534;-5.652;2023-02-28T09:31:49;8.68;;;2.22;;
77991;SDS011;67180;43.534;-5.652;2023-02-28T09:34:15;9.90;;;2.50;;
77991;SDS011;67180;43.534;-5.652;2023-02-28T09:36:42;7.60;;;2.45;;
77991;SDS011;67180;43.534;-5.652;2023-02-28T09:39:10;8.05;;;2.15;;
77991;SDS011;67180;43.534;-5.652;2023-02-28T09:41:41;11.25;;;2.20;;
77991;SDS011;67180;43.534;-5.652;2023-02-28T09:44:15;6.13;;;2.00;;
77991;SDS011;67180;43.534;-5.652;2023-02-28T09:46:44;9.30;;;2.63;;
77991;SDS011;67180;43.534;-5.652;2023-02-28T09:49:15;7.50;;;2.25;;
77991;SDS011;67180;43.534;-5.652;2023-02-28T09:51:49;4.20;;;1.83;;
77991;SDS011;67180;43.534;-5.652;2023-02-28T09:54:18;4.43;;;1.88;;
77991;SDS011;67180;43.534;-5.652;2023-02-28T09:56:46;5.53;;;1.92;;
77991;SDS011;67180;43.534;-5.652;2023-02-28T09:59:24;6.53;;;1.98;;
77991;SDS011;67180;43.534;-5.652;2023-02-28T10:01:57;7.03;;;2.40;;
77991;SDS011;67180;43.534;-5.652;2023-02-28T10:04:32;6.47;;;1.90;;
77991;SDS011;67180;43.534;-5.652;2023-02-28T10:07:01;9.20;;;2.30;;
77991;SDS011;67180;43.534;-5.652;2023-02-28T10:09:30;7.45;;;2.17;;
77991;SDS011;67180;43.534;-5.652;2023-02-28T10:12:02;2.22;;;1.50;;
77991;SDS011;67180;43.534;-5.652;2023-02-28T10:14:34;6.13;;;2.00;;
77991;SDS011;67180;43.534;-5.652;2023-02-28T10:22:25;10.80;;;3.35;;
77991;SDS011;67180;43.534;-5.652;2023-02-28T10:24:52;7.72;;;2.30;;
77991;SDS011;67180;43.534;-5.652;2023-02-28T10:27:20;6.85;;;2.28;;
77991;SDS011;67180;43.534;-5.652;2023-02-28T10:29:51;7.20;;;2.17;;
77991;SDS011;67180;43.534;-5.652;2023-02-28T10:32:19;6.07;;;2.20;;
77991;SDS011;67180;43.534;-5.652;2023-02-28T10:35:06;5.72;;;2.30;;
77991;SDS011;67180;43.534;-5.652;2023-02-28T10:37:31;9.93;;;2.55;;
77991;SDS011;67180;43.534;-5.652;2023-02-28T10:40:03;10.75;;;2.38;;
77991;SDS011;67180;43.534;-5.652;2023-02-28T10:42:31;8.88;;;2.30;;
77991;SDS011;67180;43.534;-5.652;2023-02-28T10:45:04;6.35;;;2.03;;
77991;SDS011;67180;43.534;-5.652;2023-02-28T10:47:31;7.72;;;2.10;;
77991;SDS011;67180;43.534;-5.652;2023-02-28T10:49:59;5.70;;;1.90;;
77991;SDS011;67180;43.534;-5.652;2023-02-28T10:52:33;8.18;;;2.28;;
77991;SDS011;67180;43.534;-5.652;2023-02-28T10:57:42;7.97;;;2.30;;
77991;SDS011;67180;43.534;-5.652;2023-02-28T11:00:18;6.55;;;1.98;;
77991;SDS011;67180;43.534;-5.652;2023-02-28T11:02:45;8.57;;;1.98;;
77991;SDS011;67180;43.534;-5.652;2023-02-28T11:05:28;5.40;;;1.83;;
77991;SDS011;67180;43.534;-5.652;2023-02-28T11:07:55;9.07;;;1.80;;
77991;SDS011;67180;43.534;-5.652;2023-02-28T11:10:24;8.75;;;1.90;;
77991;SDS011;67180;43.534;-5.652;2023-02-28T11:12:54;9.27;;;1.90;;
77991;SDS011;67180;43.534;-5.652;2023-02-28T11:15:24;7.00;;;2.20;;
77991;SDS011;67180;43.534;-5.652;2023-02-28T11:18:00;12.68;;;2.00;;
77991;SDS011;67180;43.534;-5.652;2023-02-28T11:20:29;11.00;;;2.10;;
77991;SDS011;67180;43.534;-5.652;2023-02-28T11:22:56;7.82;;;1.98;;
77991;SDS011;67180;43.534;-5.652;2023-02-28T11:25:24;4.47;;;1.83;;
77991;SDS011;67180;43.534;-5.652;2023-02-28T11:27:52;4.15;;;1.50;;
77991;SDS011;67180;43.534;-5.652;2023-02-28T11:30:23;6.68;;;1.95;;
77991;SDS011;67180;43.534;-5.652;2023-02-28T11:32:50;7.27;;;1.93;;
77991;SDS011;67180;43.534;-5.652;2023-02-28T11:35:17;7.40;;;2.25;;
77991;SDS011;67180;43.534;-5.652;2023-02-28T11:37:47;6.20;;;2.23;;
77991;SDS011;67180;43.534;-5.652;2023-02-28T11:40:15;6.85;;;2.17;;
77991;SDS011;67180;43.534;-5.652;2023-02-28T11:42:52;4.93;;;1.77;;
77991;SDS011;67180;43.534;-5.652;2023-02-28T11:45:22;7.25;;;2.38;;
77991;SDS011;67180;43.534;-5.652;2023-02-28T11:53:39;4.55;;;2.00;;
77991;SDS011;67180;43.534;-5.652;2023-02-28T12:01:33;4.65;;;1.92;;
77991;SDS011;67180;43.534;-5.652;2023-02-28T12:06:57;4.55;;;1.80;;
77991;SDS011;67180;43.534;-5.652;2023-02-28T12:09:35;9.13;;;2.08;;
77991;SDS011;67180;43.534;-5.652;2023-02-28T12:12:18;4.55;;;2.10;;
77991;SDS011;67180;43.534;-5.652;2023-02-28T12:14:56;7.55;;;2.20;;
77991;SDS011;67180;43.534;-5.652;2023-02-28T12:17:38;9.48;;;2.28;;
77991;SDS011;67180;43.534;-5.652;2023-02-28T12:23:01;6.68;;;2.22;;
77991;SDS011;67180;43.534;-5.652;2023-02-28T12:25:43;8.57;;;2.17;;
77991;SDS011;67180;43.534;-5.652;2023-02-28T12:28:14;7.45;;;2.30;;
77991;SDS011;67180;43.534;-5.652;2023-02-28T12:30:47;7.57;;;2.00;;
77991;SDS011;67180;43.534;-5.652;2023-02-28T12:33:16;6.70;;;2.00;;
77991;SDS011;67180;43.534;-5.652;2023-02-28T12:35:46;5.75;;;1.80;;
77991;SDS011;67180;43.534;-5.652;2023-02-28T12:38:15;7.57;;;2.03;;
77991;SDS011;67180;43.534;-5.652;2023-02-28T12:40:47;7.22;;;2.13;;
77991;SDS011;67180;43.534;-5.652;2023-02-28T12:43:15;5.32;;;1.92;;
77991;SDS011;67180;43.534;-5.652;2023-02-28T12:45:45;6.80;;;2.10;;
77991;SDS011;67180;43.534;-5.652;2023-02-28T12:48:14;7.13;;;1.80;;
77991;SDS011;67180;43.534;-5.652;2023-02-28T12:50:41;6.00;;;2.10;;
77991;SDS011;67180;43.534;-5.652;2023-02-28T12:53:09;5.00;;;1.90;;
77991;SDS011;67180;43.534;-5.652;2023-02-28T12:58:27;9.05;;;2.17;;
77991;SDS011;67180;43.534;-5.652;2023-02-28T13:09:14;8.00;;;2.50;;
77991;SDS011;67180;43.534;-5.652;2023-02-28T13:11:42;9.13;;;2.22;;
77991;SDS011;67180;43.534;-5.652;2023-02-28T13:16:53;9.73;;;2.88;;
77991;SDS011;67180;43.534;-5.652;2023-02-28T13:19:20;7.10;;;2.28;;
77991;SDS011;67180;43.534;-5.652;2023-02-28T13:21:49;9.73;;;2.53;;
77991;SDS011;67180;43.534;-5.652;2023-02-28T13:29:49;6.22;;;2.20;;
77991;SDS011;67180;43.534;-5.652;2023-02-28T13:35:12;9.23;;;2.28;;
77991;SDS011;67180;43.534;-5.652;2023-02-28T13:37:43;9.95;;;2.67;;
77991;SDS011;67180;43.534;-5.652;2023-02-28T13:40:29;5.90;;;2.10;;
77991;SDS011;67180;43.534;-5.652;2023-02-28T13:42:55;7.43;;;2.28;;
77991;SDS011;67180;43.534;-5.652;2023-02-28T13:45:23;7.82;;;2.20;;
77991;SDS011;67180;43.534;-5.652;2023-02-28T13:47:51;6.85;;;1.98;;
77991;SDS011;67180;43.534;-5.652;2023-02-28T13:50:27;8.55;;;2.00;;
77991;SDS011;67180;43.534;-5.652;2023-02-28T14:01:07;4.35;;;2.03;;
77991;SDS011;67180;43.534;-5.652;2023-02-28T14:03:37;8.10;;;2.40;;
77991;SDS011;67180;43.534;-5.652;2023-02-28T14:09:23;5.50;;;1.90;;
77991;SDS011;67180;43.534;-5.652;2023-02-28T14:11:31;3.88;;;2.10;;
77991;SDS011;67180;43.534;-5.652;2023-02-28T14:13:58;5.80;;;2.55;;
77991;SDS011;67180;43.534;-5.652;2023-02-28T14:16:26;7.82;;;2.20;;
77991;SDS011;67180;43.534;-5.652;2023-02-28T14:18:56;5.60;;;2.40;;
77991;SDS011;67180;43.534;-5.652;2023-02-28T14:21:25;6.10;;;2.40;;
77991;SDS011;67180;43.534;-5.652;2023-02-28T14:26:46;4.70;;;2.15;;
77991;SDS011;67180;43.534;-5.652;2023-02-28T14:29:24;4.72;;;1.90;;
77991;SDS011;67180;43.534;-5.652;2023-02-28T14:31:57;4.78;;;2.38;;
77991;SDS011;67180;43.534;-5.652;2023-02-28T14:34:35;5.38;;;1.92;;
77991;SDS011;67180;43.534;-5.652;2023-02-28T14:37:03;4.28;;;2.25;;
77991;SDS011;67180;43.534;-5.652;2023-02-28T14:39:30;6.45;;;2.13;;
77991;SDS011;67180;43.534;-5.652;2023-02-28T14:41:57;6.68;;;2.30;;
77991;SDS011;67180;43.534;-5.652;2023-02-28T14:44:29;9.05;;;2.35;;
77991;SDS011;67180;43.534;-5.652;2023-02-28T14:46:56;5.07;;;2.10;;
77991;SDS011;67180;43.534;-5.652;2023-02-28T14:49:28;6.13;;;2.13;;
77991;SDS011;67180;43.534;-5.652;2023-02-28T14:54:35;4.25;;;2.25;;
77991;SDS011;67180;43.534;-5.652;2023-02-28T14:57:01;3.95;;;2.30;;
77991;SDS011;67180;43.534;-5.652;2023-02-28T14:59:29;5.43;;;2.00;;
77991;SDS011;67180;43.534;-5.652;2023-02-28T15:04:33;3.60;;;1.88;;
77991;SDS011;67180;43.534;-5.652;2023-02-28T15:07:14;4.93;;;1.80;;
77991;SDS011;67180;43.534;-5.652;2023-02-28T15:09:40;5.50;;;1.80;;
77991;SDS011;67180;43.534;-5.652;2023-02-28T15:12:07;5.30;;;1.90;;
77991;SDS011;67180;43.534;-5.652;2023-02-28T15:14:33;5.63;;;2.28;;
77991;SDS011;67180;43.534;-5.652;2023-02-28T15:17:05;4.65;;;2.00;;
77991;SDS011;67180;43.534;-5.652;2023-02-28T15:19:34;5.20;;;2.35;;
77991;SDS011;67180;43.534;-5.652;2023-02-28T15:22:04;4.40;;;2.33;;
77991;SDS011;67180;43.534;-5.652;2023-02-28T15:24:33;6.13;;;2.30;;
77991;SDS011;67180;43.534;-5.652;2023-02-28T15:27:03;5.07;;;2.13;;
77991;SDS011;67180;43.534;-5.652;2023-02-28T15:29:30;5.00;;;1.98;;
77991;SDS011;67180;43.534;-5.652;2023-02-28T15:32:01;6.47;;;1.90;;
77991;SDS011;67180;43.534;-5.652;2023-02-28T15:34:36;5.55;;;2.13;;
77991;SDS011;67180;43.534;-5.652;2023-02-28T15:37:06;5.10;;;2.13;;
77991;SDS011;67180;43.534;-5.652;2023-02-28T15:39:32;4.88;;;1.75;;
77991;SDS011;67180;43.534;-5.652;2023-02-28T15:42:11;3.63;;;2.15;;
77991;SDS011;67180;43.534;-5.652;2023-02-28T15:44:38;4.67;;;2.30;;
77991;SDS011;67180;43.534;-5.652;2023-02-28T15:47:14;4.30;;;2.20;;
77991;SDS011;67180;43.534;-5.652;2023-02-28T15:49:45;4.53;;;2.20;;
77991;SDS011;67180;43.534;-5.652;2023-02-28T15:52:14;5.65;;;2.40;;
77991;SDS011;67180;43.534;-5.652;2023-02-28T15:54:41;5.25;;;2.40;;
77991;SDS011;67180;43.534;-5.652;2023-02-28T15:57:13;4.25;;;1.80;;
77991;SDS011;67180;43.534;-5.652;2023-02-28T15:59:42;4.47;;;1.88;;
77991;SDS011;67180;43.534;-5.652;2023-02-28T16:02:20;5.28;;;1.88;;